sensor_id;sensor_type;location;lat;lon;timestamp;P1;durP1;ratioP1;P2;durP2;ratioP2
13560;SDS011;6852;51.686;5.314;2023-02-28T00:00:24;5.27;;;3.53;;
13560;SDS011;6852;51.686;5.314;2023-02-28T00:02:51;4.40;;;3.57;;
13560;SDS011;6852;51.686;5.314;2023-02-28T00:05:19;4.40;;;3.50;;
13560;SDS011;6852;51.686;5.314;2023-02-28T00:07:49;5.80;;;2.90;;
13560;SDS011;6852;51.686;5.314;2023-02-28T00:10:18;5.40;;;2.80;;
13560;SDS011;6852;51.686;5.314;2023-02-28T00:12:47;5.07;;;3.73;;
13560;SDS011;6852;51.686;5.314;2023-02-28T00:15:15;4.27;;;3.30;;
13560;SDS011;6852;51.686;5.314;2023-02-28T00:17:42;4.07;;;3.53;;
13560;SDS011;6852;51.686;5.314;2023-02-28T00:20:09;5.90;;;3.40;;
13560;SDS011;6852;51.686;5.314;2023-02-28T00:22:38;6.97;;;3.60;;
13560;SDS011;6852;51.686;5.314;2023-02-28T00:25:07;7.53;;;3.30;;
13560;SDS011;6852;51.686;5.314;2023-02-28T00:27:35;4.77;;;3.57;;
13560;SDS011;6852;51.686;5.314;2023-02-28T00:30:04;5.70;;;3.20;;
13560;SDS011;6852;51.686;5.314;2023-02-28T00:32:32;4.43;;;3.43;;
13560;SDS011;6852;51.686;5.314;2023-02-28T00:35:00;3.67;;;3.00;;
13560;SDS011;6852;51.686;5.314;2023-02-28T00:37:28;6.90;;;3.17;;
13560;SDS011;6852;51.686;5.314;2023-02-28T00:39:55;4.20;;;3.53;;
13560;SDS011;6852;51.686;5.314;2023-02-28T00:42:22;4.33;;;3.33;;
13560;SDS011;6852;51.686;5.314;2023-02-28T00:44:49;5.73;;;3.13;;
13560;SDS011;6852;51.686;5.314;2023-02-28T00:47:16;4.00;;;3.23;;
13560;SDS011;6852;51.686;5.314;2023-02-28T00:49:43;3.63;;;3.20;;
13560;SDS011;6852;51.686;5.314;2023-02-28T00:52:10;3.70;;;3.20;;
13560;SDS011;6852;51.686;5.314;2023-02-28T00:54:36;4.80;;;3.40;;
13560;SDS011;6852;51.686;5.314;2023-02-28T00:57:03;7.03;;;3.07;;
13560;SDS011;6852;51.686;5.314;2023-02-28T00:59:30;6.00;;;2.77;;
13560;SDS011;6852;51.686;5.314;2023-02-28T01:01:57;3.93;;;3.17;;
13560;SDS011;6852;51.686;5.314;2023-02-28T01:04:24;5.43;;;2.87;;
13560;SDS011;6852;51.686;5.314;2023-02-28T01:06:52;3.33;;;2.70;;
13560;SDS011;6852;51.686;5.314;2023-02-28T01:09:19;5.50;;;2.83;;
13560;SDS011;6852;51.686;5.314;2023-02-28T01:11:46;4.43;;;2.93;;
13560;SDS011;6852;51.686;5.314;2023-02-28T01:14:14;3.67;;;2.90;;
13560;SDS011;6852;51.686;5.314;2023-02-28T01:16:41;4.20;;;2.90;;
13560;SDS011;6852;51.686;5.314;2023-02-28T01:19:09;4.90;;;3.77;;
13560;SDS011;6852;51.686;5.314;2023-02-28T01:21:36;4.60;;;2.97;;
13560;SDS011;6852;51.686;5.314;2023-02-28T01:24:03;4.10;;;3.17;;
13560;SDS011;6852;51.686;5.314;2023-02-28T01:26:31;5.60;;;3.33;;
13560;SDS011;6852;51.686;5.314;2023-02-28T01:28:58;4.73;;;3.30;;
13560;SDS011;6852;51.686;5.314;2023-02-28T01:31:25;5.00;;;3.30;;
13560;SDS011;6852;51.686;5.314;2023-02-28T01:33:52;4.87;;;3.07;;
13560;SDS011;6852;51.686;5.314;2023-02-28T01:36:20;3.90;;;3.40;;
13560;SDS011;6852;51.686;5.314;2023-02-28T01:38:49;3.37;;;2.90;;
13560;SDS011;6852;51.686;5.314;2023-02-28T01:41:17;4.57;;;3.47;;
13560;SDS011;6852;51.686;5.314;2023-02-28T01:43:52;4.63;;;2.80;;
13560;SDS011;6852;51.686;5.314;2023-02-28T01:46:19;3.87;;;3.10;;
13560;SDS011;6852;51.686;5.314;2023-02-28T01:48:54;8.73;;;3.57;;
13560;SDS011;6852;51.686;5.314;2023-02-28T01:54:14;5.23;;;3.47;;
13560;SDS011;6852;51.686;5.314;2023-02-28T01:56:47;5.53;;;2.97;;
13560;SDS011;6852;51.686;5.314;2023-02-28T01:59:23;3.83;;;3.10;;
13560;SDS011;6852;51.686;5.314;2023-02-28T02:01:56;6.40;;;3.47;;
13560;SDS011;6852;51.686;5.314;2023-02-28T02:04:23;3.97;;;2.93;;
13560;SDS011;6852;51.686;5.314;2023-02-28T02:06:54;5.70;;;2.90;;
13560;SDS011;6852;51.686;5.314;2023-02-28T02:09:21;6.23;;;3.57;;
13560;SDS011;6852;51.686;5.314;2023-02-28T02:11:49;4.57;;;3.50;;
13560;SDS011;6852;51.686;5.314;2023-02-28T02:17:39;8.33;;;3.63;;
13560;SDS011;6852;51.686;5.314;2023-02-28T02:25:53;4.03;;;2.80;;
13560;SDS011;6852;51.686;5.314;2023-02-28T02:42:16;3.37;;;3.07;;
13560;SDS011;6852;51.686;5.314;2023-02-28T02:44:58;4.80;;;3.10;;
13560;SDS011;6852;51.686;5.314;2023-02-28T02:47:32;4.47;;;3.20;;
13560;SDS011;6852;51.686;5.314;2023-02-28T02:50:02;4.67;;;3.50;;
13560;SDS011;6852;51.686;5.314;2023-02-28T02:52:35;3.57;;;2.53;;
13560;SDS011;6852;51.686;5.314;2023-02-28T02:55:06;3.80;;;3.37;;
13560;SDS011;6852;51.686;5.314;2023-02-28T02:57:40;4.17;;;3.03;;
13560;SDS011;6852;51.686;5.314;2023-02-28T03:00:12;3.77;;;2.80;;
13560;SDS011;6852;51.686;5.314;2023-02-28T03:02:43;8.53;;;3.17;;
13560;SDS011;6852;51.686;5.314;2023-02-28T03:05:20;5.23;;;3.37;;
13560;SDS011;6852;51.686;5.314;2023-02-28T03:08:02;7.53;;;3.10;;
13560;SDS011;6852;51.686;5.314;2023-02-28T03:15:39;5.70;;;3.37;;
13560;SDS011;6852;51.686;5.314;2023-02-28T03:21:12;6.23;;;3.40;;
13560;SDS011;6852;51.686;5.314;2023-02-28T03:26:26;3.93;;;2.70;;
13560;SDS011;6852;51.686;5.314;2023-02-28T03:29:05;5.17;;;3.60;;
13560;SDS011;6852;51.686;5.314;2023-02-28T03:31:44;5.03;;;3.07;;
13560;SDS011;6852;51.686;5.314;2023-02-28T03:34:19;4.43;;;3.23;;
13560;SDS011;6852;51.686;5.314;2023-02-28T03:36:57;4.70;;;2.80;;
13560;SDS011;6852;51.686;5.314;2023-02-28T03:39:29;5.37;;;3.20;;
13560;SDS011;6852;51.686;5.314;2023-02-28T03:42:05;6.67;;;3.30;;
13560;SDS011;6852;51.686;5.314;2023-02-28T03:44:48;4.67;;;3.10;;
13560;SDS011;6852;51.686;5.314;2023-02-28T03:47:31;4.80;;;3.50;;
13560;SDS011;6852;51.686;5.314;2023-02-28T03:50:06;5.43;;;2.87;;
13560;SDS011;6852;51.686;5.314;2023-02-28T03:52:35;5.60;;;3.57;;
13560;SDS011;6852;51.686;5.314;2023-02-28T03:55:09;4.03;;;3.20;;
13560;SDS011;6852;51.686;5.314;2023-02-28T03:57:57;6.50;;;3.27;;
13560;SDS011;6852;51.686;5.314;2023-02-28T04:00:31;4.67;;;3.43;;
13560;SDS011;6852;51.686;5.314;2023-02-28T04:03:03;5.90;;;3.43;;
13560;SDS011;6852;51.686;5.314;2023-02-28T04:05:30;7.00;;;3.80;;
13560;SDS011;6852;51.686;5.314;2023-02-28T04:08:05;6.10;;;4.10;;
13560;SDS011;6852;51.686;5.314;2023-02-28T04:10:33;7.07;;;3.57;;
13560;SDS011;6852;51.686;5.314;2023-02-28T04:13:00;5.63;;;3.50;;
13560;SDS011;6852;51.686;5.314;2023-02-28T04:15:26;4.70;;;3.57;;
13560;SDS011;6852;51.686;5.314;2023-02-28T04:17:53;4.60;;;3.53;;
13560;SDS011;6852;51.686;5.314;2023-02-28T04:20:20;4.83;;;3.60;;
13560;SDS011;6852;51.686;5.314;2023-02-28T04:22:47;4.80;;;3.73;;
13560;SDS011;6852;51.686;5.314;2023-02-28T04:25:14;4.80;;;3.60;;
13560;SDS011;6852;51.686;5.314;2023-02-28T04:27:40;5.30;;;3.77;;
13560;SDS011;6852;51.686;5.314;2023-02-28T04:30:08;5.57;;;3.73;;
13560;SDS011;6852;51.686;5.314;2023-02-28T04:32:35;10.17;;;3.93;;
13560;SDS011;6852;51.686;5.314;2023-02-28T04:35:02;4.57;;;3.70;;
13560;SDS011;6852;51.686;5.314;2023-02-28T04:37:29;5.33;;;3.57;;
13560;SDS011;6852;51.686;5.314;2023-02-28T04:39:56;4.90;;;3.77;;
13560;SDS011;6852;51.686;5.314;2023-02-28T04:42:23;5.27;;;4.00;;
13560;SDS011;6852;51.686;5.314;2023-02-28T04:44:49;5.30;;;3.80;;
13560;SDS011;6852;51.686;5.314;2023-02-28T04:47:16;4.47;;;3.27;;
13560;SDS011;6852;51.686;5.314;2023-02-28T04:49:43;7.57;;;4.20;;
13560;SDS011;6852;51.686;5.314;2023-02-28T04:52:10;4.53;;;3.70;;
13560;SDS011;6852;51.686;5.314;2023-02-28T04:54:37;4.70;;;3.33;;
13560;SDS011;6852;51.686;5.314;2023-02-28T04:57:05;4.70;;;3.83;;
13560;SDS011;6852;51.686;5.314;2023-02-28T04:59:32;4.47;;;3.57;;
13560;SDS011;6852;51.686;5.314;2023-02-28T05:01:59;5.00;;;4.20;;
13560;SDS011;6852;51.686;5.314;2023-02-28T05:04:26;10.27;;;4.00;;
13560;SDS011;6852;51.686;5.314;2023-02-28T05:06:52;6.40;;;4.40;;
13560;SDS011;6852;51.686;5.314;2023-02-28T05:09:19;7.03;;;3.60;;
13560;SDS011;6852;51.686;5.314;2023-02-28T05:11:46;6.57;;;4.27;;
13560;SDS011;6852;51.686;5.314;2023-02-28T05:14:13;4.10;;;3.53;;
13560;SDS011;6852;51.686;5.314;2023-02-28T05:16:40;6.23;;;3.60;;
13560;SDS011;6852;51.686;5.314;2023-02-28T05:19:07;4.93;;;3.33;;
13560;SDS011;6852;51.686;5.314;2023-02-28T05:21:35;4.80;;;3.43;;
13560;SDS011;6852;51.686;5.314;2023-02-28T05:24:05;8.40;;;3.73;;
13560;SDS011;6852;51.686;5.314;2023-02-28T05:26:37;3.57;;;3.07;;
13560;SDS011;6852;51.686;5.314;2023-02-28T05:29:09;6.30;;;3.67;;
13560;SDS011;6852;51.686;5.314;2023-02-28T05:31:36;5.13;;;3.40;;
13560;SDS011;6852;51.686;5.314;2023-02-28T05:34:03;4.03;;;3.20;;
13560;SDS011;6852;51.686;5.314;2023-02-28T05:36:30;5.17;;;3.73;;
13560;SDS011;6852;51.686;5.314;2023-02-28T05:38:57;4.30;;;3.13;;
13560;SDS011;6852;51.686;5.314;2023-02-28T05:41:24;3.37;;;2.67;;
13560;SDS011;6852;51.686;5.314;2023-02-28T05:43:52;6.37;;;3.50;;
13560;SDS011;6852;51.686;5.314;2023-02-28T05:46:19;3.90;;;2.90;;
13560;SDS011;6852;51.686;5.314;2023-02-28T05:48:46;4.40;;;3.50;;
13560;SDS011;6852;51.686;5.314;2023-02-28T05:51:14;4.77;;;3.13;;
13560;SDS011;6852;51.686;5.314;2023-02-28T05:53:41;3.63;;;2.93;;
13560;SDS011;6852;51.686;5.314;2023-02-28T05:56:08;5.10;;;2.77;;
13560;SDS011;6852;51.686;5.314;2023-02-28T05:58:35;4.70;;;3.90;;
13560;SDS011;6852;51.686;5.314;2023-02-28T06:01:19;5.03;;;3.03;;
13560;SDS011;6852;51.686;5.314;2023-02-28T06:03:48;4.93;;;2.80;;
13560;SDS011;6852;51.686;5.314;2023-02-28T06:06:14;6.27;;;2.80;;
13560;SDS011;6852;51.686;5.314;2023-02-28T06:08:41;5.47;;;3.03;;
13560;SDS011;6852;51.686;5.314;2023-02-28T06:11:09;3.80;;;3.10;;
13560;SDS011;6852;51.686;5.314;2023-02-28T06:13:36;4.53;;;3.07;;
13560;SDS011;6852;51.686;5.314;2023-02-28T06:16:03;5.07;;;2.90;;
13560;SDS011;6852;51.686;5.314;2023-02-28T06:18:30;4.23;;;2.70;;
13560;SDS011;6852;51.686;5.314;2023-02-28T06:20:57;3.63;;;2.90;;
13560;SDS011;6852;51.686;5.314;2023-02-28T06:23:23;6.40;;;2.70;;
13560;SDS011;6852;51.686;5.314;2023-02-28T06:25:50;4.70;;;2.90;;
13560;SDS011;6852;51.686;5.314;2023-02-28T06:28:19;5.30;;;2.80;;
13560;SDS011;6852;51.686;5.314;2023-02-28T06:30:46;3.40;;;2.80;;
13560;SDS011;6852;51.686;5.314;2023-02-28T06:33:12;4.87;;;2.60;;
13560;SDS011;6852;51.686;5.314;2023-02-28T06:35:39;4.37;;;2.40;;
13560;SDS011;6852;51.686;5.314;2023-02-28T06:38:06;3.43;;;2.13;;
13560;SDS011;6852;51.686;5.314;2023-02-28T06:40:33;6.63;;;2.50;;
13560;SDS011;6852;51.686;5.314;2023-02-28T06:43:02;4.53;;;2.77;;
13560;SDS011;6852;51.686;5.314;2023-02-28T06:45:29;5.03;;;2.63;;
13560;SDS011;6852;51.686;5.314;2023-02-28T06:47:56;2.83;;;2.30;;
13560;SDS011;6852;51.686;5.314;2023-02-28T06:50:22;3.43;;;2.07;;
13560;SDS011;6852;51.686;5.314;2023-02-28T06:52:49;3.30;;;2.50;;
13560;SDS011;6852;51.686;5.314;2023-02-28T06:55:20;3.93;;;2.20;;
13560;SDS011;6852;51.686;5.314;2023-02-28T06:57:46;4.37;;;2.20;;
13560;SDS011;6852;51.686;5.314;2023-02-28T07:00:13;3.00;;;2.70;;
13560;SDS011;6852;51.686;5.314;2023-02-28T07:02:40;6.63;;;2.10;;
13560;SDS011;6852;51.686;5.314;2023-02-28T07:05:07;4.70;;;2.30;;
13560;SDS011;6852;51.686;5.314;2023-02-28T07:07:34;5.80;;;2.20;;
13560;SDS011;6852;51.686;5.314;2023-02-28T07:10:04;4.13;;;2.30;;
13560;SDS011;6852;51.686;5.314;2023-02-28T07:12:31;3.07;;;2.40;;
13560;SDS011;6852;51.686;5.314;2023-02-28T07:14:58;3.70;;;2.33;;
13560;SDS011;6852;51.686;5.314;2023-02-28T07:17:25;2.93;;;2.17;;
13560;SDS011;6852;51.686;5.314;2023-02-28T07:19:52;3.20;;;2.63;;
13560;SDS011;6852;51.686;5.314;2023-02-28T07:22:19;2.83;;;2.20;;
13560;SDS011;6852;51.686;5.314;2023-02-28T07:24:46;4.27;;;2.50;;
13560;SDS011;6852;51.686;5.314;2023-02-28T07:27:12;3.10;;;2.00;;
13560;SDS011;6852;51.686;5.314;2023-02-28T07:29:49;3.03;;;2.30;;
13560;SDS011;6852;51.686;5.314;2023-02-28T07:32:16;2.67;;;1.90;;
13560;SDS011;6852;51.686;5.314;2023-02-28T07:34:45;6.43;;;2.47;;
13560;SDS011;6852;51.686;5.314;2023-02-28T07:37:11;3.43;;;2.30;;
13560;SDS011;6852;51.686;5.314;2023-02-28T07:39:38;3.17;;;1.97;;
13560;SDS011;6852;51.686;5.314;2023-02-28T07:42:07;3.33;;;1.50;;
13560;SDS011;6852;51.686;5.314;2023-02-28T07:44:37;2.27;;;2.00;;
13560;SDS011;6852;51.686;5.314;2023-02-28T07:47:09;2.00;;;1.80;;
13560;SDS011;6852;51.686;5.314;2023-02-28T07:49:36;2.67;;;1.70;;
13560;SDS011;6852;51.686;5.314;2023-02-28T07:52:04;2.80;;;1.87;;
13560;SDS011;6852;51.686;5.314;2023-02-28T07:54:32;2.20;;;2.00;;
13560;SDS011;6852;51.686;5.314;2023-02-28T07:56:59;2.67;;;2.03;;
13560;SDS011;6852;51.686;5.314;2023-02-28T07:59:26;2.17;;;1.70;;
13560;SDS011;6852;51.686;5.314;2023-02-28T08:01:56;2.90;;;1.90;;
13560;SDS011;6852;51.686;5.314;2023-02-28T08:04:24;4.07;;;1.77;;
13560;SDS011;6852;51.686;5.314;2023-02-28T08:06:51;1.57;;;1.47;;
13560;SDS011;6852;51.686;5.314;2023-02-28T08:09:19;2.70;;;1.77;;
13560;SDS011;6852;51.686;5.314;2023-02-28T08:11:46;2.13;;;1.70;;
13560;SDS011;6852;51.686;5.314;2023-02-28T08:14:13;2.73;;;1.33;;
13560;SDS011;6852;51.686;5.314;2023-02-28T08:16:39;2.47;;;1.50;;
13560;SDS011;6852;51.686;5.314;2023-02-28T08:19:06;2.53;;;1.53;;
13560;SDS011;6852;51.686;5.314;2023-02-28T08:21:33;2.67;;;1.40;;
13560;SDS011;6852;51.686;5.314;2023-02-28T08:24:00;2.50;;;1.60;;
13560;SDS011;6852;51.686;5.314;2023-02-28T08:26:27;3.43;;;1.73;;
13560;SDS011;6852;51.686;5.314;2023-02-28T08:28:54;1.53;;;1.43;;
13560;SDS011;6852;51.686;5.314;2023-02-28T08:31:22;1.63;;;1.53;;
13560;SDS011;6852;51.686;5.314;2023-02-28T08:33:49;2.27;;;1.47;;
13560;SDS011;6852;51.686;5.314;2023-02-28T08:36:18;4.20;;;1.40;;
13560;SDS011;6852;51.686;5.314;2023-02-28T08:38:46;2.80;;;1.60;;
13560;SDS011;6852;51.686;5.314;2023-02-28T08:41:13;2.67;;;1.60;;
13560;SDS011;6852;51.686;5.314;2023-02-28T08:43:40;2.03;;;1.60;;
13560;SDS011;6852;51.686;5.314;2023-02-28T08:46:07;2.03;;;1.23;;
13560;SDS011;6852;51.686;5.314;2023-02-28T08:48:37;3.43;;;1.60;;
13560;SDS011;6852;51.686;5.314;2023-02-28T08:51:05;2.10;;;1.60;;
13560;SDS011;6852;51.686;5.314;2023-02-28T08:53:35;2.90;;;1.77;;
13560;SDS011;6852;51.686;5.314;2023-02-28T08:56:07;2.33;;;1.60;;
13560;SDS011;6852;51.686;5.314;2023-02-28T08:58:38;2.93;;;1.50;;
13560;SDS011;6852;51.686;5.314;2023-02-28T09:01:09;1.60;;;1.50;;
13560;SDS011;6852;51.686;5.314;2023-02-28T09:03:38;2.40;;;1.53;;
13560;SDS011;6852;51.686;5.314;2023-02-28T09:06:07;2.37;;;1.50;;
13560;SDS011;6852;51.686;5.314;2023-02-28T09:08:35;1.60;;;1.27;;
13560;SDS011;6852;51.686;5.314;2023-02-28T09:11:02;3.53;;;1.80;;
13560;SDS011;6852;51.686;5.314;2023-02-28T09:13:29;1.90;;;1.70;;
13560;SDS011;6852;51.686;5.314;2023-02-28T09:16:00;2.13;;;1.70;;
13560;SDS011;6852;51.686;5.314;2023-02-28T09:18:28;1.87;;;1.43;;
13560;SDS011;6852;51.686;5.314;2023-02-28T09:20:55;1.80;;;1.07;;
13560;SDS011;6852;51.686;5.314;2023-02-28T09:23:24;2.43;;;1.27;;
13560;SDS011;6852;51.686;5.314;2023-02-28T09:25:52;1.43;;;1.20;;
13560;SDS011;6852;51.686;5.314;2023-02-28T09:28:20;1.27;;;1.10;;
13560;SDS011;6852;51.686;5.314;2023-02-28T09:30:48;1.30;;;1.20;;
13560;SDS011;6852;51.686;5.314;2023-02-28T09:33:17;1.47;;;1.30;;
13560;SDS011;6852;51.686;5.314;2023-02-28T09:35:50;1.07;;;1.00;;
13560;SDS011;6852;51.686;5.314;2023-02-28T09:38:23;1.83;;;1.60;;
13560;SDS011;6852;51.686;5.314;2023-02-28T09:40:50;2.33;;;1.50;;
13560;SDS011;6852;51.686;5.314;2023-02-28T09:43:21;2.67;;;1.20;;
13560;SDS011;6852;51.686;5.314;2023-02-28T09:45:52;1.57;;;1.47;;
13560;SDS011;6852;51.686;5.314;2023-02-28T09:48:32;2.47;;;1.57;;
13560;SDS011;6852;51.686;5.314;2023-02-28T09:51:12;2.03;;;1.33;;
13560;SDS011;6852;51.686;5.314;2023-02-28T09:53:53;2.43;;;1.30;;
13560;SDS011;6852;51.686;5.314;2023-02-28T09:56:36;1.63;;;1.43;;
13560;SDS011;6852;51.686;5.314;2023-02-28T10:01:52;1.27;;;1.10;;
13560;SDS011;6852;51.686;5.314;2023-02-28T10:04:42;4.13;;;1.10;;
13560;SDS011;6852;51.686;5.314;2023-02-28T10:10:05;3.17;;;1.20;;
13560;SDS011;6852;51.686;5.314;2023-02-28T10:12:44;1.57;;;1.17;;
13560;SDS011;6852;51.686;5.314;2023-02-28T10:15:16;1.43;;;1.03;;
13560;SDS011;6852;51.686;5.314;2023-02-28T10:17:44;1.17;;;1.00;;
13560;SDS011;6852;51.686;5.314;2023-02-28T10:20:35;1.30;;;1.20;;
13560;SDS011;6852;51.686;5.314;2023-02-28T10:23:08;1.30;;;1.20;;
13560;SDS011;6852;51.686;5.314;2023-02-28T10:25:48;1.30;;;1.17;;
13560;SDS011;6852;51.686;5.314;2023-02-28T10:28:20;2.60;;;1.40;;
13560;SDS011;6852;51.686;5.314;2023-02-28T10:30:48;3.10;;;1.30;;
13560;SDS011;6852;51.686;5.314;2023-02-28T10:35:47;1.40;;;1.30;;
13560;SDS011;6852;51.686;5.314;2023-02-28T10:38:24;1.30;;;1.20;;
13560;SDS011;6852;51.686;5.314;2023-02-28T10:41:12;3.50;;;1.53;;
13560;SDS011;6852;51.686;5.314;2023-02-28T10:43:42;1.20;;;1.10;;
13560;SDS011;6852;51.686;5.314;2023-02-28T10:46:12;2.20;;;1.37;;
13560;SDS011;6852;51.686;5.314;2023-02-28T10:49:02;1.53;;;1.27;;
13560;SDS011;6852;51.686;5.314;2023-02-28T10:51:36;2.20;;;1.47;;
13560;SDS011;6852;51.686;5.314;2023-02-28T10:54:04;2.03;;;1.40;;
13560;SDS011;6852;51.686;5.314;2023-02-28T10:56:31;1.90;;;1.70;;
13560;SDS011;6852;51.686;5.314;2023-02-28T10:59:01;1.43;;;1.33;;
13560;SDS011;6852;51.686;5.314;2023-02-28T11:04:16;1.30;;;1.20;;
13560;SDS011;6852;51.686;5.314;2023-02-28T11:06:43;1.30;;;1.20;;
13560;SDS011;6852;51.686;5.314;2023-02-28T11:09:45;1.57;;;1.17;;
13560;SDS011;6852;51.686;5.314;2023-02-28T11:12:07;1.33;;;1.23;;
13560;SDS011;6852;51.686;5.314;2023-02-28T11:14:47;1.47;;;1.37;;
13560;SDS011;6852;51.686;5.314;2023-02-28T11:17:23;2.20;;;1.37;;
13560;SDS011;6852;51.686;5.314;2023-02-28T11:20:05;1.57;;;1.47;;
13560;SDS011;6852;51.686;5.314;2023-02-28T11:22:35;1.93;;;1.30;;
13560;SDS011;6852;51.686;5.314;2023-02-28T11:27:54;1.40;;;1.30;;
13560;SDS011;6852;51.686;5.314;2023-02-28T11:30:24;1.30;;;1.20;;
13560;SDS011;6852;51.686;5.314;2023-02-28T11:32:53;2.80;;;1.20;;
13560;SDS011;6852;51.686;5.314;2023-02-28T11:35:31;1.73;;;1.20;;
13560;SDS011;6852;51.686;5.314;2023-02-28T11:38:01;1.70;;;1.40;;
13560;SDS011;6852;51.686;5.314;2023-02-28T11:40:35;1.20;;;1.03;;
13560;SDS011;6852;51.686;5.314;2023-02-28T11:43:28;2.90;;;1.30;;
13560;SDS011;6852;51.686;5.314;2023-02-28T12:00:52;1.23;;;1.13;;
13560;SDS011;6852;51.686;5.314;2023-02-28T12:03:31;1.77;;;1.60;;
13560;SDS011;6852;51.686;5.314;2023-02-28T12:11:34;1.70;;;1.47;;
13560;SDS011;6852;51.686;5.314;2023-02-28T12:16:49;2.40;;;1.73;;
13560;SDS011;6852;51.686;5.314;2023-02-28T12:19:40;1.73;;;1.40;;
13560;SDS011;6852;51.686;5.314;2023-02-28T12:24:50;2.53;;;1.37;;
13560;SDS011;6852;51.686;5.314;2023-02-28T12:27:21;2.53;;;1.20;;
13560;SDS011;6852;51.686;5.314;2023-02-28T12:29:57;2.23;;;1.50;;
13560;SDS011;6852;51.686;5.314;2023-02-28T12:32:33;2.90;;;1.53;;
13560;SDS011;6852;51.686;5.314;2023-02-28T12:37:37;1.53;;;1.40;;
13560;SDS011;6852;51.686;5.314;2023-02-28T12:40:13;2.63;;;1.40;;
13560;SDS011;6852;51.686;5.314;2023-02-28T12:42:51;3.17;;;1.47;;
13560;SDS011;6852;51.686;5.314;2023-02-28T12:45:23;1.40;;;1.30;;
13560;SDS011;6852;51.686;5.314;2023-02-28T12:47:56;1.73;;;1.43;;
13560;SDS011;6852;51.686;5.314;2023-02-28T12:50:27;2.23;;;1.40;;
13560;SDS011;6852;51.686;5.314;2023-02-28T12:53:02;1.60;;;1.30;;
13560;SDS011;6852;51.686;5.314;2023-02-28T12:58:41;3.63;;;1.40;;
13560;SDS011;6852;51.686;5.314;2023-02-28T13:09:40;2.30;;;1.70;;
13560;SDS011;6852;51.686;5.314;2023-02-28T13:12:12;1.50;;;1.40;;
13560;SDS011;6852;51.686;5.314;2023-02-28T13:14:40;2.83;;;1.50;;
13560;SDS011;6852;51.686;5.314;2023-02-28T13:19:44;1.73;;;1.23;;
13560;SDS011;6852;51.686;5.314;2023-02-28T13:24:52;2.40;;;1.63;;
13560;SDS011;6852;51.686;5.314;2023-02-28T13:29:51;3.23;;;1.47;;
13560;SDS011;6852;51.686;5.314;2023-02-28T13:32:19;3.47;;;1.70;;
13560;SDS011;6852;51.686;5.314;2023-02-28T13:39:56;2.93;;;1.77;;
13560;SDS011;6852;51.686;5.314;2023-02-28T13:47:39;2.73;;;1.50;;
13560;SDS011;6852;51.686;5.314;2023-02-28T13:58:55;1.67;;;1.50;;
13560;SDS011;6852;51.686;5.314;2023-02-28T14:01:41;3.27;;;1.77;;
13560;SDS011;6852;51.686;5.314;2023-02-28T14:07:09;2.03;;;1.50;;
13560;SDS011;6852;51.686;5.314;2023-02-28T14:09:45;2.43;;;1.80;;
13560;SDS011;6852;51.686;5.314;2023-02-28T14:32:22;2.57;;;1.90;;
13560;SDS011;6852;51.686;5.314;2023-02-28T14:37:27;1.53;;;1.40;;
13560;SDS011;6852;51.686;5.314;2023-02-28T14:39:57;1.93;;;1.60;;
13560;SDS011;6852;51.686;5.314;2023-02-28T14:42:35;2.97;;;1.60;;
13560;SDS011;6852;51.686;5.314;2023-02-28T14:45:19;2.57;;;2.10;;
13560;SDS011;6852;51.686;5.314;2023-02-28T14:47:49;2.97;;;1.70;;
13560;SDS011;6852;51.686;5.314;2023-02-28T14:50:21;2.50;;;1.73;;
13560;SDS011;6852;51.686;5.314;2023-02-28T14:52:53;1.97;;;1.70;;
13560;SDS011;6852;51.686;5.314;2023-02-28T14:55:30;4.17;;;2.03;;
13560;SDS011;6852;51.686;5.314;2023-02-28T14:58:01;2.27;;;1.40;;
13560;SDS011;6852;51.686;5.314;2023-02-28T15:00:36;2.43;;;2.00;;
13560;SDS011;6852;51.686;5.314;2023-02-28T15:03:19;4.27;;;1.90;;
13560;SDS011;6852;51.686;5.314;2023-02-28T15:08:21;2.27;;;1.73;;
13560;SDS011;6852;51.686;5.314;2023-02-28T15:11:04;2.00;;;1.57;;
13560;SDS011;6852;51.686;5.314;2023-02-28T15:13:38;2.73;;;1.93;;
13560;SDS011;6852;51.686;5.314;2023-02-28T15:16:08;1.93;;;1.70;;
13560;SDS011;6852;51.686;5.314;2023-02-28T15:21:17;2.93;;;1.93;;
13560;SDS011;6852;51.686;5.314;2023-02-28T15:26:40;2.83;;;1.67;;
13560;SDS011;6852;51.686;5.314;2023-02-28T15:29:13;4.33;;;1.90;;
13560;SDS011;6852;51.686;5.314;2023-02-28T15:31:44;2.27;;;1.77;;
13560;SDS011;6852;51.686;5.314;2023-02-28T15:34:44;3.37;;;2.07;;
13560;SDS011;6852;51.686;5.314;2023-02-28T15:42:38;2.10;;;1.73;;
13560;SDS011;6852;51.686;5.314;2023-02-28T15:45:05;2.50;;;1.80;;
13560;SDS011;6852;51.686;5.314;2023-02-28T15:47:32;2.43;;;1.80;;
13560;SDS011;6852;51.686;5.314;2023-02-28T15:55:12;2.27;;;2.03;;
13560;SDS011;6852;51.686;5.314;2023-02-28T15:57:46;2.47;;;1.67;;
13560;SDS011;6852;51.686;5.314;2023-02-28T16:00:21;2.33;;;1.87;;
13560;SDS011;6852;51.686;5.314;2023-02-28T16:02:49;4.40;;;2.30;;
13560;SDS011;6852;51.686;5.314;2023-02-28T16:07:57;2.87;;;2.03;;
13560;SDS011;6852;51.686;5.314;2023-02-28T16:10:33;1.70;;;1.60;;
13560;SDS011;6852;51.686;5.314;2023-02-28T16:13:01;2.60;;;2.00;;
13560;SDS011;6852;51.686;5.314;2023-02-28T16:15:37;4.20;;;1.80;;
13560;SDS011;6852;51.686;5.314;2023-02-28T16:18:10;4.97;;;2.10;;
13560;SDS011;6852;51.686;5.314;2023-02-28T16:20:38;4.10;;;2.10;;
13560;SDS011;6852;51.686;5.314;2023-02-28T16:23:05;2.87;;;2.33;;
13560;SDS011;6852;51.686;5.314;2023-02-28T16:25:37;2.40;;;2.07;;
13560;SDS011;6852;51.686;5.314;2023-02-28T16:28:29;2.37;;;1.70;;
13560;SDS011;6852;51.686;5.314;2023-02-28T16:31:02;2.97;;;2.20;;
13560;SDS011;6852;51.686;5.314;2023-02-28T16:33:32;3.77;;;1.83;;
13560;SDS011;6852;51.686;5.314;2023-02-28T16:36:01;3.17;;;2.30;;
13560;SDS011;6852;51.686;5.314;2023-02-28T16:38:27;3.40;;;1.97;;
13560;SDS011;6852;51.686;5.314;2023-02-28T16:40:55;2.50;;;1.70;;
13560;SDS011;6852;51.686;5.314;2023-02-28T16:43:25;3.70;;;2.20;;
13560;SDS011;6852;51.686;5.314;2023-02-28T16:45:56;2.57;;;1.93;;
13560;SDS011;6852;51.686;5.314;2023-02-28T16:48:26;2.23;;;2.03;;
13560;SDS011;6852;51.686;5.314;2023-02-28T16:50:53;2.50;;;2.10;;
13560;SDS011;6852;51.686;5.314;2023-02-28T16:53:20;2.73;;;1.90;;
13560;SDS011;6852;51.686;5.314;2023-02-28T16:55:47;3.93;;;2.70;;
13560;SDS011;6852;51.686;5.314;2023-02-28T16:58:14;2.53;;;1.97;;
13560;SDS011;6852;51.686;5.314;2023-02-28T17:00:43;3.53;;;2.17;;
13560;SDS011;6852;51.686;5.314;2023-02-28T17:03:16;2.00;;;1.80;;
13560;SDS011;6852;51.686;5.314;2023-02-28T17:05:57;3.37;;;1.83;;
13560;SDS011;6852;51.686;5.314;2023-02-28T17:08:24;1.77;;;1.50;;
13560;SDS011;6852;51.686;5.314;2023-02-28T17:10:51;2.33;;;2.00;;
13560;SDS011;6852;51.686;5.314;2023-02-28T17:13:18;3.23;;;1.67;;
13560;SDS011;6852;51.686;5.314;2023-02-28T17:15:45;4.30;;;2.13;;
13560;SDS011;6852;51.686;5.314;2023-02-28T17:18:17;2.03;;;1.83;;
13560;SDS011;6852;51.686;5.314;2023-02-28T17:20:45;3.40;;;2.13;;
13560;SDS011;6852;51.686;5.314;2023-02-28T17:23:12;2.90;;;2.23;;
13560;SDS011;6852;51.686;5.314;2023-02-28T17:25:39;2.93;;;2.13;;
13560;SDS011;6852;51.686;5.314;2023-02-28T17:28:05;2.57;;;2.07;;
13560;SDS011;6852;51.686;5.314;2023-02-28T17:30:33;3.73;;;2.00;;
13560;SDS011;6852;51.686;5.314;2023-02-28T17:33:01;3.07;;;2.30;;
13560;SDS011;6852;51.686;5.314;2023-02-28T17:35:28;3.10;;;2.30;;
13560;SDS011;6852;51.686;5.314;2023-02-28T17:37:54;3.03;;;2.73;;
13560;SDS011;6852;51.686;5.314;2023-02-28T17:40:22;3.10;;;2.30;;
13560;SDS011;6852;51.686;5.314;2023-02-28T17:42:49;5.37;;;2.30;;
13560;SDS011;6852;51.686;5.314;2023-02-28T17:45:18;4.10;;;2.83;;
13560;SDS011;6852;51.686;5.314;2023-02-28T17:47:46;3.00;;;2.47;;
13560;SDS011;6852;51.686;5.314;2023-02-28T17:50:15;3.50;;;2.10;;
13560;SDS011;6852;51.686;5.314;2023-02-28T17:52:45;3.23;;;2.30;;
13560;SDS011;6852;51.686;5.314;2023-02-28T17:55:12;2.77;;;2.07;;
13560;SDS011;6852;51.686;5.314;2023-02-28T17:57:40;2.53;;;2.33;;
13560;SDS011;6852;51.686;5.314;2023-02-28T18:00:10;3.00;;;2.70;;
13560;SDS011;6852;51.686;5.314;2023-02-28T18:02:41;3.50;;;2.50;;